KSVC/SVC METAR and TAF weather

Enter ICAO airport designator
Station Type Date Time Source
KSVC METAR 2021/01/17 18:55 UTC NOAA

KSVC 171855Z AUTO 21009KT 10SM CLR 16/M15 A3018 RMK AO2 T01621153


Station Type Date Time Source
KSVC Decoded METAR 2021/01/17 18:55 UTC NOAA

Silver City / Grant, NM, United States (KSVC) 32-38N 108-09W
Jan 17, 2021 - 01:55 PM EST / 2021.01.17 1855 UTC
Wind: from the SSW (210 degrees) at 10 MPH (9 KT):0
Visibility: 10 mile(s):0
Sky conditions: clear
Temperature: 61.2 F (16.2 C)
Dew Point: 4.5 F (-15.3 C)
Relative Humidity: 10%
Pressure (altimeter): 30.18 in. Hg (1022 hPa)
ob: KSVC 171855Z AUTO 21009KT 10SM CLR 16/M15 A3018 RMK AO2 T01621153
cycle: 19

Station Type Date Time Source
KSVC TAF UTC NOAA

Error!

Example: see airport list